createdAt,value
2022-09-12T00:00:58.157Z,1007.34
2022-09-12T00:01:58.149Z,1007.36
2022-09-12T00:02:58.179Z,1007.35
2022-09-12T00:03:58.116Z,1007.38
2022-09-12T00:04:58.115Z,1007.38
2022-09-12T00:05:58.134Z,1007.4
2022-09-12T00:06:58.082Z,1007.35
2022-09-12T00:07:58.154Z,1007.38
2022-09-12T00:08:58.116Z,1007.38
2022-09-12T00:09:58.186Z,1007.38
2022-09-12T00:10:58.109Z,1007.34
2022-09-12T00:11:58.285Z,1007.36
2022-09-12T00:12:58.095Z,1007.39
2022-09-12T00:13:58.152Z,1007.36
2022-09-12T00:14:58.164Z,1007.38
2022-09-12T00:15:58.502Z,1007.37
2022-09-12T00:16:58.222Z,1007.42
2022-09-12T00:17:58.122Z,1007.4
2022-09-12T00:18:58.315Z,1007.41
2022-09-12T00:19:58.098Z,1007.37
2022-09-12T00:20:58.282Z,1007.36
2022-09-12T00:21:58.140Z,1007.37
2022-09-12T00:22:58.400Z,1007.41
2022-09-12T00:23:58.113Z,1007.42
2022-09-12T00:24:58.109Z,1007.4
2022-09-12T00:25:58.221Z,1007.4
2022-09-12T00:26:58.105Z,1007.37
2022-09-12T00:27:58.103Z,1007.37
2022-09-12T00:28:58.109Z,1007.36
2022-09-12T00:29:58.103Z,1007.36
2022-09-12T00:30:58.137Z,1007.34
2022-09-12T00:31:58.166Z,1007.29
2022-09-12T00:32:58.149Z,1007.3
2022-09-12T00:33:58.094Z,1007.32
2022-09-12T00:34:58.246Z,1007.29
2022-09-12T00:35:58.504Z,1007.31
2022-09-12T00:36:58.255Z,1007.31
2022-09-12T00:37:58.463Z,1007.28
2022-09-12T00:38:58.308Z,1007.25
2022-09-12T00:39:58.674Z,1007.29
2022-09-12T00:40:58.277Z,1007.31
2022-09-12T00:41:58.659Z,1007.29
2022-09-12T00:42:58.441Z,1007.3
2022-09-12T00:43:58.764Z,1007.3
2022-09-12T00:44:58.393Z,1007.3
2022-09-12T00:45:58.841Z,1007.26
2022-09-12T00:46:59.326Z,1007.3
2022-09-12T00:47:58.857Z,1007.33
2022-09-12T00:48:58.329Z,1007.27
2022-09-12T00:49:58.629Z,1007.28
2022-09-12T00:50:58.238Z,1007.29
2022-09-12T00:51:58.543Z,1007.3
2022-09-12T00:52:58.332Z,1007.28
2022-09-12T00:53:58.609Z,1007.26
2022-09-12T00:54:58.271Z,1007.23
2022-09-12T00:55:58.510Z,1007.24
2022-09-12T00:56:58.574Z,1007.2
2022-09-12T00:57:58.271Z,1007.18
2022-09-12T00:58:58.831Z,1007.18
2022-09-12T00:59:58.597Z,1007.2
2022-09-12T01:00:58.999Z,1007.14
2022-09-12T01:01:58.536Z,1007.17
2022-09-12T01:02:58.091Z,1007.14
2022-09-12T01:03:58.345Z,1007.12
2022-09-12T01:04:58.565Z,1007.12
2022-09-12T01:05:58.863Z,1007.13
2022-09-12T01:06:58.278Z,1007.12
2022-09-12T01:07:58.487Z,1007.09
2022-09-12T01:08:58.943Z,1007.08
2022-09-12T01:09:58.110Z,1007.08
2022-09-12T01:10:58.109Z,1007.13
2022-09-12T01:11:58.224Z,1007.12
2022-09-12T01:12:58.487Z,1007.17
2022-09-12T01:13:58.754Z,1007.08
2022-09-12T01:14:58.198Z,1007.09
2022-09-12T01:15:58.110Z,1007.1
2022-09-12T01:16:58.331Z,1007.08
2022-09-12T01:17:58.142Z,1007.07
2022-09-12T01:18:58.144Z,1007.11
2022-09-12T01:19:58.191Z,1007.07
2022-09-12T01:20:58.117Z,1007.1
2022-09-12T01:21:58.219Z,1007.05
2022-09-12T01:22:58.131Z,1007.06
2022-09-12T01:23:58.358Z,1007.05
2022-09-12T01:24:58.116Z,1007
2022-09-12T01:25:58.109Z,1007.01
2022-09-12T01:26:58.119Z,1006.99
2022-09-12T01:27:58.143Z,1006.99
2022-09-12T01:28:58.183Z,1006.93
2022-09-12T01:29:58.136Z,1006.96
2022-09-12T01:30:58.096Z,1006.93
2022-09-12T01:31:58.147Z,1006.93
2022-09-12T01:32:58.145Z,1006.93
2022-09-12T01:33:58.119Z,1006.91
2022-09-12T01:34:58.108Z,1006.92
2022-09-12T01:35:58.144Z,1006.87
2022-09-12T01:36:58.111Z,1006.89
2022-09-12T01:37:58.131Z,1006.85
2022-09-12T01:38:58.113Z,1006.83
2022-09-12T01:39:58.158Z,1006.82
2022-09-12T01:40:58.135Z,1006.84
2022-09-12T01:41:58.320Z,1006.83
2022-09-12T01:42:58.108Z,1006.83
2022-09-12T01:43:58.110Z,1006.86
2022-09-12T01:44:58.107Z,1006.82
2022-09-12T01:45:58.150Z,1006.8
2022-09-12T01:46:58.109Z,1006.82
2022-09-12T01:47:58.125Z,1006.86
2022-09-12T01:48:58.116Z,1006.86
2022-09-12T01:49:58.117Z,1006.88
2022-09-12T01:50:58.125Z,1006.86
2022-09-12T01:51:58.112Z,1006.85
2022-09-12T01:52:58.330Z,1006.87
2022-09-12T01:53:58.107Z,1006.87
2022-09-12T01:54:58.116Z,1006.85
2022-09-12T01:55:58.119Z,1006.85
2022-09-12T01:56:58.115Z,1006.81
2022-09-12T01:57:58.121Z,1006.83
2022-09-12T01:58:58.112Z,1006.82
2022-09-12T01:59:58.116Z,1006.8
2022-09-12T02:00:58.143Z,1006.8
2022-09-12T02:01:58.222Z,1006.76
2022-09-12T02:02:58.146Z,1006.74
2022-09-12T02:03:58.103Z,1006.71
2022-09-12T02:04:58.113Z,1006.72
2022-09-12T02:05:58.120Z,1006.67
2022-09-12T02:06:58.112Z,1006.65
2022-09-12T02:07:58.115Z,1006.66
2022-09-12T02:08:58.117Z,1006.71
2022-09-12T02:09:58.118Z,1006.69
2022-09-12T02:10:58.117Z,1006.63
2022-09-12T02:11:58.108Z,1006.67
2022-09-12T02:12:58.234Z,1006.68
2022-09-12T02:13:58.198Z,1006.63
2022-09-12T02:14:58.104Z,1006.64
2022-09-12T02:15:58.106Z,1006.64
2022-09-12T02:16:58.119Z,1006.64
2022-09-12T02:17:58.110Z,1006.68
2022-09-12T02:18:58.107Z,1006.66
2022-09-12T02:19:58.121Z,1006.67
2022-09-12T02:20:58.110Z,1006.69
2022-09-12T02:21:58.114Z,1006.69
2022-09-12T02:22:58.240Z,1006.67
2022-09-12T02:23:58.095Z,1006.68
2022-09-12T02:24:58.098Z,1006.66
2022-09-12T02:25:58.123Z,1006.7
2022-09-12T02:26:58.106Z,1006.7
2022-09-12T02:27:58.497Z,1006.69
2022-09-12T02:28:58.704Z,1006.69
2022-09-12T02:29:58.541Z,1006.68
2022-09-12T02:30:57.860Z,1006.7
2022-09-12T02:31:58.089Z,1006.72
2022-09-12T02:32:58.408Z,1006.68
2022-09-12T02:33:58.692Z,1006.71
2022-09-12T02:34:57.955Z,1006.7
2022-09-12T02:35:58.251Z,1006.67
2022-09-12T02:36:58.772Z,1006.65
2022-09-12T02:37:58.364Z,1006.68
2022-09-12T02:38:58.560Z,1006.7
2022-09-12T02:39:58.865Z,1006.72
2022-09-12T02:40:58.104Z,1006.68
2022-09-12T02:41:58.208Z,1006.7
2022-09-12T02:42:58.417Z,1006.71
2022-09-12T02:43:58.107Z,1006.73
2022-09-12T02:44:58.122Z,1006.67
2022-09-12T02:45:58.143Z,1006.63
2022-09-12T02:46:58.122Z,1006.66
2022-09-12T02:47:58.137Z,1006.64
2022-09-12T02:48:58.341Z,1006.64
2022-09-12T02:49:58.101Z,1006.61
2022-09-12T02:50:58.106Z,1006.64
2022-09-12T02:51:58.098Z,1006.58
2022-09-12T02:52:58.131Z,1006.61
2022-09-12T02:53:58.147Z,1006.6
2022-09-12T02:54:58.107Z,1006.59
2022-09-12T02:55:58.104Z,1006.61
2022-09-12T02:56:58.119Z,1006.56
2022-09-12T02:57:58.263Z,1006.57
2022-09-12T02:58:58.102Z,1006.55
2022-09-12T02:59:58.359Z,1006.56
2022-09-12T03:00:58.390Z,1006.55
2022-09-12T03:01:58.391Z,1006.53
2022-09-12T03:02:58.387Z,1006.54
2022-09-12T03:03:58.360Z,1006.56
2022-09-12T03:04:58.381Z,1006.55
2022-09-12T03:05:58.382Z,1006.53
2022-09-12T03:06:58.396Z,1006.52
2022-09-12T03:07:58.497Z,1006.52
2022-09-12T03:08:58.428Z,1006.49
2022-09-12T03:09:58.379Z,1006.52
2022-09-12T03:10:58.376Z,1006.5
2022-09-12T03:11:58.369Z,1006.49
2022-09-12T03:12:58.386Z,1006.48
2022-09-12T03:13:58.386Z,1006.47
2022-09-12T03:14:58.387Z,1006.44
2022-09-12T03:15:58.373Z,1006.46
2022-09-12T03:16:58.400Z,1006.46
2022-09-12T03:17:58.537Z,1006.46
2022-09-12T03:18:58.486Z,1006.49
2022-09-12T03:19:58.491Z,1006.42
2022-09-12T03:20:58.490Z,1006.44
2022-09-12T03:21:58.492Z,1006.45
2022-09-12T03:22:58.457Z,1006.42
2022-09-12T03:23:58.460Z,1006.43
2022-09-12T03:24:58.508Z,1006.42
2022-09-12T03:25:58.492Z,1006.43
2022-09-12T03:26:58.503Z,1006.44
2022-09-12T03:27:58.495Z,1006.42
2022-09-12T03:28:58.640Z,1006.43
2022-09-12T03:29:59.172Z,1006.39
2022-09-12T03:30:58.850Z,1006.39
2022-09-12T03:31:58.268Z,1006.39
2022-09-12T03:32:58.219Z,1006.37
2022-09-12T03:33:58.558Z,1006.42
2022-09-12T03:34:58.791Z,1006.43
2022-09-12T03:35:59.025Z,1006.41
2022-09-12T03:36:58.115Z,1006.41
2022-09-12T03:37:58.114Z,1006.44
2022-09-12T03:38:58.100Z,1006.47
2022-09-12T03:39:58.146Z,1006.47
2022-09-12T03:40:58.160Z,1006.44
2022-09-12T03:41:58.241Z,1006.46
2022-09-12T03:42:58.223Z,1006.47
2022-09-12T03:43:58.094Z,1006.45
2022-09-12T03:44:58.111Z,1006.45
2022-09-12T03:45:58.177Z,1006.45
2022-09-12T03:46:58.494Z,1006.47
2022-09-12T03:47:58.343Z,1006.46
2022-09-12T03:48:58.108Z,1006.44
2022-09-12T03:49:58.470Z,1006.45
2022-09-12T03:50:59.031Z,1006.49
2022-09-12T03:51:58.507Z,1006.46
2022-09-12T03:52:58.244Z,1006.46
2022-09-12T03:53:58.296Z,1006.43
2022-09-12T03:54:58.269Z,1006.43
2022-09-12T03:55:58.490Z,1006.47
2022-09-12T03:56:58.203Z,1006.43
2022-09-12T03:57:58.415Z,1006.44
2022-09-12T03:58:58.151Z,1006.46
2022-09-12T03:59:58.152Z,1006.41
2022-09-12T04:00:58.186Z,1006.44
2022-09-12T04:01:58.263Z,1006.46
2022-09-12T04:02:58.140Z,1006.45
2022-09-12T04:03:58.104Z,1006.44
2022-09-12T04:04:58.080Z,1006.45
2022-09-12T04:05:58.085Z,1006.45
2022-09-12T04:06:58.098Z,1006.42
2022-09-12T04:07:58.131Z,1006.44
2022-09-12T04:08:58.100Z,1006.46
2022-09-12T04:09:58.317Z,1006.5
2022-09-12T04:10:58.067Z,1006.5
2022-09-12T04:11:58.308Z,1006.52
2022-09-12T04:12:58.585Z,1006.52
2022-09-12T04:13:58.088Z,1006.51
2022-09-12T04:14:58.550Z,1006.49
2022-09-12T04:15:58.180Z,1006.54
2022-09-12T04:16:58.227Z,1006.58
2022-09-12T04:18:05.180Z,1006.58
2022-09-12T04:18:58.283Z,1006.54
2022-09-12T04:19:58.487Z,1006.52
2022-09-12T04:20:58.241Z,1006.56
2022-09-12T04:21:58.094Z,1006.54
2022-09-12T04:22:58.361Z,1006.54
2022-09-12T04:23:58.402Z,1006.56
2022-09-12T04:24:58.360Z,1006.5
2022-09-12T04:25:58.238Z,1006.53
2022-09-12T04:26:58.208Z,1006.51
2022-09-12T04:27:58.184Z,1006.49
2022-09-12T04:28:58.099Z,1006.48
2022-09-12T04:29:58.110Z,1006.48
2022-09-12T04:30:58.341Z,1006.47
2022-09-12T04:31:58.085Z,1006.48
2022-09-12T04:32:58.106Z,1006.46
2022-09-12T04:33:58.324Z,1006.48
2022-09-12T04:34:58.188Z,1006.5
2022-09-12T04:35:58.115Z,1006.46
2022-09-12T04:36:58.153Z,1006.45
2022-09-12T04:37:58.613Z,1006.4
2022-09-12T04:38:58.108Z,1006.38
2022-09-12T04:39:58.148Z,1006.39
2022-09-12T04:40:58.111Z,1006.38
2022-09-12T04:41:58.125Z,1006.39
2022-09-12T04:42:58.109Z,1006.41
2022-09-12T04:43:58.109Z,1006.38
2022-09-12T04:44:58.114Z,1006.31
2022-09-12T04:45:58.127Z,1006.3
2022-09-12T04:46:58.107Z,1006.33
2022-09-12T04:47:58.332Z,1006.27
2022-09-12T04:49:01.112Z,1006.31
2022-09-12T04:49:58.103Z,1006.24
2022-09-12T04:50:58.097Z,1006.24
2022-09-12T04:51:58.110Z,1006.24
2022-09-12T04:52:58.123Z,1006.23
2022-09-12T04:53:58.119Z,1006.21
2022-09-12T04:54:58.102Z,1006.22
2022-09-12T04:55:58.105Z,1006.25
2022-09-12T04:56:58.151Z,1006.23
2022-09-12T04:57:58.098Z,1006.22
2022-09-12T04:58:58.139Z,1006.26
2022-09-12T04:59:58.100Z,1006.3
2022-09-12T05:00:58.136Z,1006.27
2022-09-12T05:01:58.120Z,1006.25
2022-09-12T05:02:58.082Z,1006.32
2022-09-12T05:03:58.102Z,1006.28
2022-09-12T05:04:58.102Z,1006.28
2022-09-12T05:05:59.127Z,1006.27
2022-09-12T05:06:58.105Z,1006.26
2022-09-12T05:07:58.138Z,1006.22
2022-09-12T05:08:58.152Z,1006.24
2022-09-12T05:09:58.112Z,1006.23
2022-09-12T05:10:58.245Z,1006.24
2022-09-12T05:12:07.229Z,1006.26
2022-09-12T05:12:58.104Z,1006.26
2022-09-12T05:13:58.096Z,1006.26
2022-09-12T05:14:58.104Z,1006.28
2022-09-12T05:15:58.112Z,1006.26
2022-09-12T05:16:58.154Z,1006.29
2022-09-12T05:17:58.123Z,1006.26
2022-09-12T05:18:58.134Z,1006.26
2022-09-12T05:19:58.111Z,1006.28
2022-09-12T05:20:58.132Z,1006.29
2022-09-12T05:21:58.239Z,1006.24
2022-09-12T05:22:58.114Z,1006.28
2022-09-12T05:23:58.155Z,1006.27
2022-09-12T05:24:58.111Z,1006.24
2022-09-12T05:25:58.114Z,1006.25
2022-09-12T05:26:58.102Z,1006.24
2022-09-12T05:27:58.103Z,1006.21
2022-09-12T05:28:58.110Z,1006.2
2022-09-12T05:29:58.119Z,1006.18
2022-09-12T05:30:58.167Z,1006.24
2022-09-12T05:31:58.207Z,1006.22
2022-09-12T05:32:58.121Z,1006.18
2022-09-12T05:33:58.089Z,1006.22
2022-09-12T05:34:58.100Z,1006.21
2022-09-12T05:35:58.107Z,1006.15
2022-09-12T05:36:58.105Z,1006.17
2022-09-12T05:37:58.096Z,1006.14
2022-09-12T05:38:58.127Z,1006.14
2022-09-12T05:39:58.114Z,1006.15
2022-09-12T05:40:58.129Z,1006.1
2022-09-12T05:41:58.327Z,1006.09
2022-09-12T05:42:58.612Z,1006.12
2022-09-12T05:43:58.535Z,1006.14
2022-09-12T05:44:57.697Z,1006.15
2022-09-12T05:45:58.039Z,1006.12
2022-09-12T05:46:58.339Z,1006.14
2022-09-12T05:47:58.567Z,1006.1
2022-09-12T05:48:58.957Z,1006.09
2022-09-12T05:49:58.190Z,1006.11
2022-09-12T05:50:58.443Z,1006.05
2022-09-12T05:51:58.082Z,1006.05
2022-09-12T05:52:58.280Z,1006.09
2022-09-12T05:53:58.694Z,1006.13
2022-09-12T05:54:58.845Z,1006.07
2022-09-12T05:55:58.318Z,1006.03
2022-09-12T05:56:58.127Z,1005.97
2022-09-12T05:57:58.116Z,1005.98
2022-09-12T05:58:58.109Z,1005.96
2022-09-12T05:59:58.129Z,1005.98
2022-09-12T06:00:58.131Z,1005.96
2022-09-12T06:01:58.181Z,1005.94
2022-09-12T06:02:58.119Z,1005.97
2022-09-12T06:03:58.086Z,1005.94
2022-09-12T06:04:58.111Z,1005.95
2022-09-12T06:05:58.166Z,1005.95
2022-09-12T06:06:58.135Z,1005.94
2022-09-12T06:07:58.117Z,1005.94
2022-09-12T06:08:58.116Z,1005.94
2022-09-12T06:09:58.095Z,1005.96
2022-09-12T06:11:05.596Z,1005.93
2022-09-12T06:11:58.134Z,1005.95
2022-09-12T06:12:58.131Z,1005.92
2022-09-12T06:13:58.122Z,1005.92
2022-09-12T06:14:58.106Z,1005.94
2022-09-12T06:15:58.120Z,1005.92
2022-09-12T06:16:58.181Z,1005.89
2022-09-12T06:17:58.100Z,1005.91
2022-09-12T06:18:58.108Z,1005.91
2022-09-12T06:19:58.127Z,1005.91
2022-09-12T06:20:58.132Z,1005.93
2022-09-12T06:21:58.111Z,1005.88
2022-09-12T06:22:58.114Z,1005.91
2022-09-12T06:23:58.108Z,1005.9
2022-09-12T06:25:01.117Z,1005.91
2022-09-12T06:25:58.229Z,1005.93
2022-09-12T06:26:58.117Z,1005.88
2022-09-12T06:27:58.120Z,1005.9
2022-09-12T06:28:58.102Z,1005.88
2022-09-12T06:29:58.103Z,1005.87
2022-09-12T06:30:58.099Z,1005.9
2022-09-12T06:31:58.110Z,1005.9
2022-09-12T06:32:58.110Z,1005.88
2022-09-12T06:33:58.144Z,1005.83
2022-09-12T06:34:58.495Z,1005.85
2022-09-12T06:35:58.255Z,1005.85
2022-09-12T06:36:58.509Z,1005.82
2022-09-12T06:37:58.428Z,1005.81
2022-09-12T06:38:58.656Z,1005.77
2022-09-12T06:39:59.327Z,1005.73
2022-09-12T06:40:58.184Z,1005.74
2022-09-12T06:41:58.530Z,1005.73
2022-09-12T06:42:58.175Z,1005.73
2022-09-12T06:43:58.312Z,1005.76
2022-09-12T06:44:58.395Z,1005.73
2022-09-12T06:45:58.679Z,1005.67
2022-09-12T06:46:58.934Z,1005.67
2022-09-12T06:47:58.099Z,1005.68
2022-09-12T06:48:58.135Z,1005.67
2022-09-12T06:49:58.278Z,1005.66
2022-09-12T06:50:58.126Z,1005.66
2022-09-12T06:51:58.104Z,1005.65
2022-09-12T06:52:58.100Z,1005.67
2022-09-12T06:53:58.117Z,1005.64
2022-09-12T06:54:58.124Z,1005.64
2022-09-12T06:55:58.105Z,1005.62
2022-09-12T06:56:58.137Z,1005.62
2022-09-12T06:57:58.226Z,1005.61
2022-09-12T06:58:58.127Z,1005.62
2022-09-12T06:59:58.130Z,1005.62
2022-09-12T07:01:01.143Z,1005.63
2022-09-12T07:01:58.178Z,1005.59
2022-09-12T07:02:58.107Z,1005.6
2022-09-12T07:03:58.140Z,1005.58
2022-09-12T07:04:58.100Z,1005.6
2022-09-12T07:05:58.121Z,1005.56
2022-09-12T07:06:58.125Z,1005.59
2022-09-12T07:07:58.117Z,1005.51
2022-09-12T07:08:58.144Z,1005.56
2022-09-12T07:09:58.117Z,1005.54
2022-09-12T07:10:58.111Z,1005.54
2022-09-12T07:11:58.111Z,1005.55
2022-09-12T07:12:58.113Z,1005.55
2022-09-12T07:13:58.125Z,1005.55
2022-09-12T07:14:58.108Z,1005.55
2022-09-12T07:15:58.097Z,1005.59
2022-09-12T07:16:58.158Z,1005.55
2022-09-12T07:17:58.231Z,1005.52
2022-09-12T07:18:58.103Z,1005.58
2022-09-12T07:19:58.113Z,1005.54
2022-09-12T07:20:58.106Z,1005.56
2022-09-12T07:22:01.104Z,1005.57
2022-09-12T07:22:58.374Z,1005.61
2022-09-12T07:23:58.256Z,1005.58
2022-09-12T07:24:58.199Z,1005.57
2022-09-12T07:25:58.296Z,1005.61
2022-09-12T07:26:58.582Z,1005.57
2022-09-12T07:27:58.112Z,1005.61
2022-09-12T07:29:32.676Z,1005.61
2022-09-12T07:29:58.574Z,1005.61
2022-09-12T07:30:58.418Z,1005.62
2022-09-12T07:31:58.627Z,1005.64
2022-09-12T07:32:58.458Z,1005.66
2022-09-12T07:33:58.671Z,1005.66
2022-09-12T07:34:58.096Z,1005.62
2022-09-12T07:35:58.317Z,1005.63
2022-09-12T07:36:58.486Z,1005.65
2022-09-12T07:37:58.090Z,1005.65
2022-09-12T07:39:01.283Z,1005.63
2022-09-12T07:39:58.119Z,1005.66
2022-09-12T07:40:58.143Z,1005.68
2022-09-12T07:41:58.497Z,1005.61
2022-09-12T07:42:58.254Z,1005.64
2022-09-12T07:43:58.093Z,1005.61
2022-09-12T07:44:58.264Z,1005.59
2022-09-12T07:45:58.117Z,1005.67
2022-09-12T07:46:58.092Z,1005.64
2022-09-12T07:47:58.101Z,1005.66
2022-09-12T07:48:58.388Z,1005.68
2022-09-12T07:49:58.185Z,1005.7
2022-09-12T07:50:58.129Z,1005.69
2022-09-12T07:51:58.314Z,1005.68
2022-09-12T07:52:58.129Z,1005.72
2022-09-12T07:53:58.111Z,1005.72
2022-09-12T07:54:58.097Z,1005.72
2022-09-12T07:55:58.090Z,1005.72
2022-09-12T07:56:58.111Z,1005.73
2022-09-12T07:57:58.109Z,1005.76
2022-09-12T07:58:58.114Z,1005.72
2022-09-12T07:59:58.155Z,1005.72
2022-09-12T08:00:58.203Z,1005.75
2022-09-12T08:01:58.193Z,1005.76
2022-09-12T08:02:58.144Z,1005.74
2022-09-12T08:03:58.125Z,1005.75
2022-09-12T08:04:58.101Z,1005.72
2022-09-12T08:05:58.110Z,1005.76
2022-09-12T08:06:58.117Z,1005.76
2022-09-12T08:08:01.147Z,1005.75
2022-09-12T08:08:58.107Z,1005.79
2022-09-12T08:09:58.093Z,1005.79
2022-09-12T08:10:58.116Z,1005.78
2022-09-12T08:11:58.165Z,1005.73
2022-09-12T08:12:58.211Z,1005.77
2022-09-12T08:13:59.112Z,1005.77
2022-09-12T08:14:58.118Z,1005.76
2022-09-12T08:15:58.139Z,1005.75
2022-09-12T08:16:58.103Z,1005.78
2022-09-12T08:17:58.114Z,1005.78
2022-09-12T08:18:58.116Z,1005.74
2022-09-12T08:19:58.102Z,1005.76
2022-09-12T08:20:58.123Z,1005.8
2022-09-12T08:21:58.108Z,1005.77
2022-09-12T08:22:58.139Z,1005.82
2022-09-12T08:23:58.114Z,1005.78
2022-09-12T08:24:58.136Z,1005.77
2022-09-12T08:25:58.131Z,1005.81
2022-09-12T08:26:58.235Z,1005.79
2022-09-12T08:27:58.107Z,1005.77
2022-09-12T08:28:58.099Z,1005.75
2022-09-12T08:29:58.073Z,1005.79
2022-09-12T08:30:58.146Z,1005.76
2022-09-12T08:32:01.203Z,1005.77
2022-09-12T08:32:58.111Z,1005.76
2022-09-12T08:33:58.304Z,1005.74
2022-09-12T08:34:58.189Z,1005.72
2022-09-12T08:35:58.090Z,1005.72
2022-09-12T08:36:58.143Z,1005.72
2022-09-12T08:37:58.217Z,1005.7
2022-09-12T08:39:02.357Z,1005.71
2022-09-12T08:39:58.106Z,1005.72
2022-09-12T08:40:58.274Z,1005.73
2022-09-12T08:41:58.260Z,1005.72
2022-09-12T08:42:58.470Z,1005.75
2022-09-12T08:44:01.155Z,1005.73
2022-09-12T08:44:58.395Z,1005.71
2022-09-12T08:45:58.528Z,1005.7
2022-09-12T08:46:59.972Z,1005.67
2022-09-12T08:47:58.401Z,1005.73
2022-09-12T08:48:58.803Z,1005.74
2022-09-12T08:49:58.787Z,1005.74
2022-09-12T08:50:59.151Z,1005.74
2022-09-12T08:51:58.529Z,1005.77
2022-09-12T08:52:59.774Z,1005.76
2022-09-12T08:53:59.095Z,1005.76
2022-09-12T08:54:59.348Z,1005.73
2022-09-12T08:55:58.208Z,1005.73
2022-09-12T08:56:58.767Z,1005.71
2022-09-12T08:57:58.055Z,1005.71
2022-09-12T08:58:58.523Z,1005.67
2022-09-12T08:59:58.235Z,1005.67
2022-09-12T09:00:58.902Z,1005.66
2022-09-12T09:01:57.890Z,1005.65
2022-09-12T09:02:58.288Z,1005.64
2022-09-12T09:03:58.525Z,1005.65
2022-09-12T09:04:58.103Z,1005.65
2022-09-12T09:05:58.158Z,1005.63
2022-09-12T09:06:58.386Z,1005.62
2022-09-12T09:07:58.227Z,1005.65
2022-09-12T09:08:58.094Z,1005.68
2022-09-12T09:09:58.246Z,1005.63
2022-09-12T09:10:58.134Z,1005.66
2022-09-12T09:11:58.115Z,1005.63
2022-09-12T09:12:58.116Z,1005.63
2022-09-12T09:13:59.980Z,1005.53
2022-09-12T09:14:58.240Z,1005.55
2022-09-12T09:15:58.269Z,1005.53
2022-09-12T09:16:58.133Z,1005.54
2022-09-12T09:17:58.195Z,1005.51
2022-09-12T09:18:58.112Z,1005.52
2022-09-12T09:19:58.100Z,1005.5
2022-09-12T09:20:58.127Z,1005.49
2022-09-12T09:21:58.114Z,1005.47
2022-09-12T09:22:58.105Z,1005.48
2022-09-12T09:23:58.105Z,1005.46
2022-09-12T09:24:58.117Z,1005.49
2022-09-12T09:25:58.100Z,1005.44
2022-09-12T09:26:58.109Z,1005.41
2022-09-12T09:27:58.111Z,1005.39
2022-09-12T09:28:58.119Z,1005.37
2022-09-12T09:29:58.108Z,1005.4
2022-09-12T09:30:58.173Z,1005.4
2022-09-12T09:31:58.113Z,1005.41
2022-09-12T09:32:58.131Z,1005.42
2022-09-12T09:33:58.118Z,1005.41
2022-09-12T09:34:58.119Z,1005.4
2022-09-12T09:35:58.232Z,1005.4
2022-09-12T09:36:58.118Z,1005.39
2022-09-12T09:38:01.106Z,1005.41
2022-09-12T09:38:58.115Z,1005.37
2022-09-12T09:39:58.126Z,1005.39
2022-09-12T09:40:58.099Z,1005.45
2022-09-12T09:41:58.092Z,1005.44
2022-09-12T09:42:58.123Z,1005.43
2022-09-12T09:43:58.188Z,1005.46
2022-09-12T09:44:58.106Z,1005.45
2022-09-12T09:45:58.117Z,1005.43
2022-09-12T09:46:58.107Z,1005.43
2022-09-12T09:47:58.195Z,1005.42
2022-09-12T09:48:58.226Z,1005.43
2022-09-12T09:49:58.428Z,1005.44
2022-09-12T09:50:58.138Z,1005.43
2022-09-12T09:52:02.470Z,1005.45
2022-09-12T09:52:58.236Z,1005.44
2022-09-12T09:53:58.646Z,1005.43
2022-09-12T09:54:58.274Z,1005.41
2022-09-12T09:55:58.170Z,1005.45
2022-09-12T09:56:58.546Z,1005.42
2022-09-12T09:57:58.188Z,1005.39
2022-09-12T09:58:58.482Z,1005.37
2022-09-12T09:59:58.631Z,1005.38
2022-09-12T10:00:59.125Z,1005.36
2022-09-12T10:01:58.951Z,1005.36
2022-09-12T10:02:58.125Z,1005.36
2022-09-12T10:03:58.112Z,1005.33
2022-09-12T10:04:58.107Z,1005.35
2022-09-12T10:05:58.123Z,1005.35
2022-09-12T10:06:58.114Z,1005.29
2022-09-12T10:07:58.121Z,1005.31
2022-09-12T10:08:58.127Z,1005.3
2022-09-12T10:09:58.127Z,1005.28
2022-09-12T10:10:58.134Z,1005.3
2022-09-12T10:11:59.126Z,1005.25
2022-09-12T10:12:58.124Z,1005.24
2022-09-12T10:13:58.112Z,1005.22
2022-09-12T10:14:58.113Z,1005.22
2022-09-12T10:15:58.223Z,1005.19
2022-09-12T10:16:58.110Z,1005.2
2022-09-12T10:17:58.166Z,1005.22
2022-09-12T10:18:58.122Z,1005.23
2022-09-12T10:20:20.770Z,1005.21
2022-09-12T10:20:58.250Z,1005.21
2022-09-12T10:21:58.238Z,1005.23
2022-09-12T10:22:58.113Z,1005.15
2022-09-12T10:23:58.106Z,1005.13
2022-09-12T10:24:58.106Z,1005.13
2022-09-12T10:25:58.108Z,1005.1
2022-09-12T10:27:01.115Z,1005.09
2022-09-12T10:27:58.117Z,1005.12
2022-09-12T10:28:58.116Z,1005.1
2022-09-12T10:29:58.108Z,1005.04
2022-09-12T10:30:58.186Z,1005.04
2022-09-12T10:31:58.112Z,1005.05
2022-09-12T10:32:58.195Z,1005.01
2022-09-12T10:33:58.093Z,1005.03
2022-09-12T10:34:58.104Z,1005.02
2022-09-12T10:35:58.195Z,1004.97
2022-09-12T10:36:58.463Z,1004.97
2022-09-12T10:37:58.151Z,1004.97
2022-09-12T10:38:58.188Z,1004.96
2022-09-12T10:39:58.370Z,1004.98
2022-09-12T10:40:58.115Z,1004.95
2022-09-12T10:41:58.316Z,1004.94
2022-09-12T10:42:58.514Z,1004.92
2022-09-12T10:43:58.266Z,1004.94
2022-09-12T10:44:58.566Z,1004.94
2022-09-12T10:45:58.446Z,1004.94
2022-09-12T10:46:58.450Z,1004.92
2022-09-12T10:47:58.701Z,1004.99
2022-09-12T10:48:58.305Z,1004.94
2022-09-12T10:49:58.110Z,1004.92
2022-09-12T10:50:58.216Z,1004.9
2022-09-12T10:51:58.084Z,1004.95
2022-09-12T10:52:58.370Z,1004.92
2022-09-12T10:53:58.105Z,1004.95
2022-09-12T10:54:58.408Z,1004.88
2022-09-12T10:55:58.094Z,1004.89
2022-09-12T10:56:58.178Z,1004.87
2022-09-12T10:57:58.420Z,1004.85
2022-09-12T10:58:58.117Z,1004.88
2022-09-12T10:59:58.248Z,1004.86
2022-09-12T11:00:58.104Z,1004.83
2022-09-12T11:01:58.104Z,1004.87
2022-09-12T11:02:58.140Z,1004.85
2022-09-12T11:03:58.138Z,1004.84
2022-09-12T11:04:58.118Z,1004.86
2022-09-12T11:05:58.216Z,1004.85
2022-09-12T11:06:58.116Z,1004.83
2022-09-12T11:07:58.118Z,1004.83
2022-09-12T11:08:58.098Z,1004.83
2022-09-12T11:09:58.106Z,1004.82
2022-09-12T11:10:58.118Z,1004.84
2022-09-12T11:11:58.112Z,1004.8
2022-09-12T11:12:58.123Z,1004.78
2022-09-12T11:13:58.124Z,1004.8
2022-09-12T11:14:58.118Z,1004.79
2022-09-12T11:15:58.335Z,1004.77
2022-09-12T11:16:58.123Z,1004.77
2022-09-12T11:17:58.102Z,1004.77
2022-09-12T11:18:58.111Z,1004.71
2022-09-12T11:19:58.105Z,1004.68
2022-09-12T11:20:58.129Z,1004.72
2022-09-12T11:21:58.105Z,1004.74
2022-09-12T11:22:58.115Z,1004.74
2022-09-12T11:23:58.107Z,1004.75
2022-09-12T11:24:58.270Z,1004.7
2022-09-12T11:25:58.147Z,1004.69
2022-09-12T11:26:58.119Z,1004.71
2022-09-12T11:27:58.347Z,1004.64
2022-09-12T11:28:58.119Z,1004.63
2022-09-12T11:29:58.100Z,1004.63
2022-09-12T11:30:58.147Z,1004.57
2022-09-12T11:31:58.115Z,1004.62
2022-09-12T11:32:58.142Z,1004.62
2022-09-12T11:34:01.120Z,1004.59
2022-09-12T11:34:58.118Z,1004.56
2022-09-12T11:35:58.111Z,1004.59
2022-09-12T11:36:58.196Z,1004.54
2022-09-12T11:37:58.187Z,1004.51
2022-09-12T11:38:58.105Z,1004.49
2022-09-12T11:39:59.123Z,1004.48
2022-09-12T11:40:58.120Z,1004.48
2022-09-12T11:41:58.096Z,1004.45
2022-09-12T11:42:58.104Z,1004.44
2022-09-12T11:43:58.105Z,1004.5
2022-09-12T11:44:58.191Z,1004.49
2022-09-12T11:45:58.135Z,1004.49
2022-09-12T11:46:58.260Z,1004.44
2022-09-12T11:47:58.221Z,1004.43
2022-09-12T11:48:58.316Z,1004.4
2022-09-12T11:49:58.591Z,1004.46
2022-09-12T11:50:58.096Z,1004.46
2022-09-12T11:51:58.304Z,1004.45
2022-09-12T11:52:58.452Z,1004.48
2022-09-12T11:53:58.253Z,1004.45
2022-09-12T11:54:58.172Z,1004.43
2022-09-12T11:55:58.471Z,1004.43
2022-09-12T11:56:58.569Z,1004.4
2022-09-12T11:57:58.371Z,1004.38
2022-09-12T11:58:58.730Z,1004.39
2022-09-12T11:59:58.661Z,1004.37
2022-09-12T12:00:58.244Z,1004.35
2022-09-12T12:01:58.601Z,1004.33
2022-09-12T12:02:58.768Z,1004.29
2022-09-12T12:03:58.108Z,1004.27
2022-09-12T12:04:58.356Z,1004.25
2022-09-12T12:05:58.582Z,1004.26
2022-09-12T12:06:58.335Z,1004.28
2022-09-12T12:07:58.367Z,1004.22